createdAt,value
2019-02-24T00:00:08.744Z,5.20
2019-02-24T00:02:39.539Z,5.20
2019-02-24T00:05:09.236Z,5.20
2019-02-24T00:07:38.405Z,5.10
2019-02-24T00:10:07.591Z,5.20
2019-02-24T00:12:36.813Z,5.20
2019-02-24T00:15:07.813Z,5.20
2019-02-24T00:17:37.408Z,5.20
2019-02-24T00:20:06.737Z,5.10
2019-02-24T00:22:35.921Z,5.10
2019-02-24T00:25:05.668Z,5.10
2019-02-24T00:27:34.898Z,5.20
2019-02-24T00:30:04.820Z,5.20
2019-02-24T00:32:34.507Z,5.20
2019-02-24T00:35:04.685Z,5.20
2019-02-24T00:37:34.174Z,5.10
2019-02-24T00:40:04.130Z,5.10
2019-02-24T00:42:33.308Z,5.10
2019-02-24T00:45:02.797Z,5.10
2019-02-24T00:47:32.137Z,5.10
2019-02-24T00:50:01.312Z,5.00
2019-02-24T00:52:30.608Z,5.00
2019-02-24T00:54:59.804Z,5.00
2019-02-24T00:57:29.041Z,5.00
2019-02-24T00:59:58.228Z,5.00
2019-02-24T01:02:27.703Z,5.00
2019-02-24T01:04:56.877Z,5.00
2019-02-24T01:07:26.035Z,4.90
2019-02-24T01:09:55.215Z,4.90
2019-02-24T01:12:24.388Z,4.90
2019-02-24T01:14:53.571Z,4.90
2019-02-24T01:17:22.796Z,4.90
2019-02-24T01:19:51.997Z,4.90
2019-02-24T01:22:21.501Z,4.90
2019-02-24T01:24:50.688Z,4.90
2019-02-24T01:27:19.853Z,4.90
2019-02-24T01:29:49.037Z,4.90
2019-02-24T01:32:18.211Z,4.80
2019-02-24T01:34:47.461Z,4.80
2019-02-24T01:37:16.620Z,4.70
2019-02-24T01:39:45.835Z,4.60
2019-02-24T01:42:14.973Z,4.50
2019-02-24T01:44:44.152Z,4.50
2019-02-24T01:47:13.334Z,4.40
2019-02-24T01:49:42.494Z,4.30
2019-02-24T01:52:11.709Z,4.30
2019-02-24T01:54:40.903Z,4.20
2019-02-24T01:57:10.144Z,4.20
2019-02-24T01:59:39.309Z,4.20
2019-02-24T02:02:08.494Z,4.10
2019-02-24T02:04:37.652Z,4.10
2019-02-24T02:07:06.837Z,4.10
2019-02-24T02:09:37.072Z,4.20
2019-02-24T02:12:07.869Z,4.20
2019-02-24T02:14:38.108Z,4.10
2019-02-24T02:17:08.284Z,4.10
2019-02-24T02:19:37.453Z,4.20
2019-02-24T02:22:06.895Z,4.20
2019-02-24T02:24:36.064Z,4.20
2019-02-24T02:27:05.233Z,4.10
2019-02-24T02:29:34.421Z,4.20
2019-02-24T02:32:03.599Z,4.20
2019-02-24T02:34:32.763Z,4.20
2019-02-24T02:37:01.935Z,4.20
2019-02-24T02:39:31.134Z,4.20
2019-02-24T02:42:00.319Z,4.20
2019-02-24T02:44:29.802Z,4.20
2019-02-24T02:46:58.992Z,4.20
2019-02-24T02:49:28.157Z,4.20
2019-02-24T02:51:57.341Z,4.10
2019-02-24T02:54:26.519Z,4.10
2019-02-24T02:56:55.760Z,4.10
2019-02-24T02:59:24.947Z,4.20
2019-02-24T03:01:54.120Z,4.20
2019-02-24T03:04:23.301Z,4.20
2019-02-24T03:06:56.796Z,4.20
2019-02-24T03:09:25.986Z,4.20
2019-02-24T03:11:55.148Z,4.20
2019-02-24T03:14:24.405Z,4.20
2019-02-24T03:16:53.580Z,4.00
2019-02-24T03:19:22.756Z,3.90
2019-02-24T03:21:51.926Z,3.80
2019-02-24T03:24:21.104Z,3.70
2019-02-24T03:26:50.289Z,3.60
2019-02-24T03:29:19.452Z,3.50
2019-02-24T03:31:48.614Z,3.50
2019-02-24T03:34:17.796Z,3.50
2019-02-24T03:36:46.966Z,3.40
2019-02-24T03:39:16.480Z,3.40
2019-02-24T03:41:45.672Z,3.30
2019-02-24T03:44:14.836Z,3.30
2019-02-24T03:46:44.025Z,3.30
2019-02-24T03:49:13.192Z,3.30
2019-02-24T03:51:42.367Z,3.40
2019-02-24T03:54:12.599Z,3.40
2019-02-24T03:56:41.784Z,3.40
2019-02-24T03:59:15.131Z,3.40
2019-02-24T04:01:41.825Z,3.30
2019-02-24T04:04:10.988Z,3.30
2019-02-24T04:06:40.817Z,3.20
2019-02-24T04:09:10.184Z,3.20
2019-02-24T04:11:39.376Z,3.10
2019-02-24T04:14:08.610Z,3.10
2019-02-24T04:16:37.799Z,3.10
2019-02-24T04:19:06.986Z,3.00
2019-02-24T04:21:36.144Z,2.90
2019-02-24T04:24:05.341Z,2.90
2019-02-24T04:26:34.762Z,2.80
2019-02-24T04:29:03.938Z,2.60
2019-02-24T04:31:33.114Z,2.50
2019-02-24T04:34:02.300Z,2.50
2019-02-24T04:36:31.461Z,2.40
2019-02-24T04:39:00.958Z,2.40
2019-02-24T04:41:31.106Z,2.40
2019-02-24T04:44:00.309Z,2.40
2019-02-24T04:46:29.480Z,2.30
2019-02-24T04:48:59.746Z,2.10
2019-02-24T04:51:28.944Z,2.10
2019-02-24T04:53:58.118Z,2.10
2019-02-24T04:56:27.302Z,2.00
2019-02-24T04:58:56.471Z,2.00
2019-02-24T05:01:25.675Z,2.10
2019-02-24T05:03:54.836Z,2.10
2019-02-24T05:06:24.005Z,2.10
2019-02-24T05:08:53.177Z,2.10
2019-02-24T05:11:22.369Z,2.20
2019-02-24T05:13:51.832Z,2.20
2019-02-24T05:16:21.017Z,2.30
2019-02-24T05:18:50.196Z,2.30
2019-02-24T05:21:19.693Z,2.30
2019-02-24T05:23:48.880Z,2.30
2019-02-24T05:26:18.049Z,2.30
2019-02-24T05:28:47.225Z,2.30
2019-02-24T05:31:16.413Z,2.20
2019-02-24T05:33:45.603Z,2.10
2019-02-24T05:36:14.784Z,2.10
2019-02-24T05:38:43.948Z,2.10
2019-02-24T05:41:13.138Z,2.10
2019-02-24T05:43:42.313Z,2.00
2019-02-24T05:46:11.507Z,2.10
2019-02-24T05:48:40.685Z,2.00
2019-02-24T05:51:09.889Z,1.80
2019-02-24T05:53:39.055Z,1.70
2019-02-24T05:56:08.241Z,1.60
2019-02-24T05:58:37.420Z,1.60
2019-02-24T06:01:06.614Z,1.50
2019-02-24T06:03:35.795Z,1.50
2019-02-24T06:06:04.963Z,1.40
2019-02-24T06:08:34.150Z,1.40
2019-02-24T06:11:03.324Z,1.40
2019-02-24T06:13:32.513Z,1.40
2019-02-24T06:16:01.677Z,1.40
2019-02-24T06:18:30.871Z,1.40
2019-02-24T06:21:00.036Z,1.40
2019-02-24T06:23:29.229Z,1.30
2019-02-24T06:25:58.702Z,1.30
2019-02-24T06:28:27.893Z,1.40
2019-02-24T06:30:57.064Z,1.40
2019-02-24T06:33:26.260Z,1.40
2019-02-24T06:35:55.429Z,1.40
2019-02-24T06:38:24.612Z,1.50
2019-02-24T06:40:53.790Z,1.50
2019-02-24T06:43:22.964Z,1.60
2019-02-24T06:45:52.157Z,1.60
2019-02-24T06:48:21.324Z,1.60
2019-02-24T06:50:54.892Z,1.70
2019-02-24T06:53:24.073Z,1.80
2019-02-24T06:55:53.264Z,1.90
2019-02-24T06:58:22.465Z,2.00
2019-02-24T07:00:51.665Z,2.10
2019-02-24T07:03:20.833Z,2.20
2019-02-24T07:05:50.086Z,2.30
2019-02-24T07:08:19.295Z,2.50
2019-02-24T07:10:48.481Z,2.60
2019-02-24T07:13:17.664Z,2.70
2019-02-24T07:15:46.836Z,2.80
2019-02-24T07:18:16.039Z,2.90
2019-02-24T07:20:45.238Z,3.00
2019-02-24T07:23:14.441Z,3.10
2019-02-24T07:25:43.606Z,3.10
2019-02-24T07:28:12.801Z,3.20
2019-02-24T07:30:41.961Z,3.30
2019-02-24T07:33:12.432Z,3.30
2019-02-24T07:35:42.092Z,3.40
2019-02-24T07:38:11.605Z,3.50
2019-02-24T07:40:40.784Z,3.50
2019-02-24T07:43:11.072Z,3.60
2019-02-24T07:45:40.241Z,3.70
2019-02-24T07:48:09.429Z,3.80
2019-02-24T07:50:38.616Z,3.80
2019-02-24T07:53:07.782Z,3.80
2019-02-24T07:55:36.969Z,3.90
2019-02-24T07:58:06.144Z,3.90
2019-02-24T08:00:35.342Z,3.90
2019-02-24T08:03:04.777Z,4.00
2019-02-24T08:05:34.148Z,4.00
2019-02-24T08:08:03.386Z,4.10
2019-02-24T08:10:32.572Z,4.10
2019-02-24T08:13:01.774Z,4.20
2019-02-24T08:15:31.330Z,4.30
2019-02-24T08:18:00.536Z,4.40
2019-02-24T08:20:29.693Z,4.50
2019-02-24T08:22:58.869Z,4.70
2019-02-24T08:25:28.041Z,4.80
2019-02-24T08:27:57.221Z,4.90
2019-02-24T08:30:26.388Z,5.00
2019-02-24T08:32:55.822Z,5.10
2019-02-24T08:35:24.999Z,5.20
2019-02-24T08:37:54.176Z,5.30
2019-02-24T08:40:23.341Z,5.40
2019-02-24T08:42:52.830Z,5.40
2019-02-24T08:45:22.008Z,5.50
2019-02-24T08:47:51.533Z,5.60
2019-02-24T08:50:20.731Z,5.60
2019-02-24T08:52:49.893Z,5.70
2019-02-24T08:55:19.113Z,5.70
2019-02-24T08:57:48.266Z,5.80
2019-02-24T09:00:17.457Z,5.90
2019-02-24T09:02:46.753Z,6.00
2019-02-24T09:05:15.927Z,6.10
2019-02-24T09:07:45.123Z,6.20
2019-02-24T09:10:14.297Z,6.30
2019-02-24T09:12:43.479Z,6.40
2019-02-24T09:15:13.784Z,6.40
2019-02-24T09:17:42.968Z,6.50
2019-02-24T09:20:12.897Z,6.60
2019-02-24T09:22:42.084Z,6.70
2019-02-24T09:25:11.570Z,6.80
2019-02-24T09:27:40.817Z,6.80
2019-02-24T09:30:13.838Z,6.90
2019-02-24T09:32:43.003Z,7.00
2019-02-24T09:35:12.184Z,7.00
2019-02-24T09:37:42.388Z,7.10
2019-02-24T09:40:12.980Z,7.20
2019-02-24T09:42:42.202Z,7.30
2019-02-24T09:45:12.626Z,7.30
2019-02-24T09:47:46.864Z,7.40
2019-02-24T09:50:12.678Z,7.50
2019-02-24T09:52:42.946Z,7.50
2019-02-24T09:55:12.096Z,7.60
2019-02-24T09:57:41.293Z,7.60
2019-02-24T10:00:15.348Z,7.60
2019-02-24T10:02:44.520Z,7.70
2019-02-24T10:05:13.708Z,7.70
2019-02-24T10:07:42.876Z,7.80
2019-02-24T10:10:13.088Z,7.80
2019-02-24T10:12:42.346Z,7.90
2019-02-24T10:15:13.282Z,7.90
2019-02-24T10:17:42.466Z,7.90
2019-02-24T10:20:12.572Z,8.00
2019-02-24T10:22:41.757Z,8.10
2019-02-24T10:25:10.921Z,8.10
2019-02-24T10:27:40.112Z,8.10
2019-02-24T10:30:16.137Z,8.20
2019-02-24T10:32:45.329Z,8.30
2019-02-24T10:35:14.501Z,8.30
2019-02-24T10:37:43.685Z,8.40
2019-02-24T10:40:14.927Z,8.40
2019-02-24T10:42:44.092Z,8.50
2019-02-24T10:45:16.085Z,8.50
2019-02-24T10:47:45.565Z,8.60
2019-02-24T10:50:15.797Z,8.70
2019-02-24T10:52:44.954Z,8.70
2019-02-24T10:55:14.361Z,8.80
2019-02-24T10:57:43.802Z,8.80
2019-02-24T11:00:18.477Z,8.80
2019-02-24T11:02:47.648Z,8.90
2019-02-24T11:05:16.846Z,9.00
2019-02-24T11:07:46.020Z,9.00
2019-02-24T11:10:15.197Z,9.00
2019-02-24T11:12:44.368Z,9.00
2019-02-24T11:15:14.130Z,9.00
2019-02-24T11:17:43.296Z,9.10
2019-02-24T11:20:15.006Z,9.10
2019-02-24T11:22:44.231Z,9.20
2019-02-24T11:25:13.421Z,9.30
2019-02-24T11:27:42.596Z,9.30
2019-02-24T11:30:15.556Z,9.30
2019-02-24T11:32:44.750Z,9.40
2019-02-24T11:35:13.906Z,9.50
2019-02-24T11:37:43.087Z,9.50
2019-02-24T11:40:14.289Z,9.60
2019-02-24T11:42:43.480Z,9.70
2019-02-24T11:45:12.929Z,9.80
2019-02-24T11:47:42.117Z,9.80
2019-02-24T11:50:12.440Z,9.80
2019-02-24T11:52:42.152Z,9.90
2019-02-24T11:55:11.557Z,9.90
2019-02-24T11:57:40.752Z,9.80
2019-02-24T12:00:12.542Z,9.90
2019-02-24T12:02:42.032Z,9.90
2019-02-24T12:05:11.442Z,9.90
2019-02-24T12:07:40.932Z,10.00
2019-02-24T12:10:11.357Z,10.10
2019-02-24T12:12:40.548Z,10.20
2019-02-24T12:15:11.928Z,10.20
2019-02-24T12:17:42.550Z,10.30
2019-02-24T12:20:14.476Z,10.40
2019-02-24T12:22:43.917Z,10.50
2019-02-24T12:25:13.097Z,10.50
2019-02-24T12:27:42.285Z,10.60
2019-02-24T12:30:15.376Z,10.60
2019-02-24T12:32:44.633Z,10.70
2019-02-24T12:35:13.811Z,10.60
2019-02-24T12:37:43.071Z,10.70
2019-02-24T12:40:13.833Z,10.80
2019-02-24T12:42:43.071Z,10.80
2019-02-24T12:45:12.537Z,10.80
2019-02-24T12:47:41.698Z,10.80
2019-02-24T12:50:12.485Z,10.80
2019-02-24T12:52:41.668Z,10.90
2019-02-24T12:55:11.133Z,10.80
2019-02-24T12:57:40.856Z,10.90
2019-02-24T13:00:14.917Z,10.90
2019-02-24T13:02:44.186Z,10.90
2019-02-24T13:05:13.431Z,10.90
2019-02-24T13:07:42.620Z,11.00
2019-02-24T13:10:14.451Z,11.00
2019-02-24T13:12:43.806Z,11.00
2019-02-24T13:15:13.103Z,11.10
2019-02-24T13:17:42.706Z,11.20
2019-02-24T13:20:12.012Z,11.20
2019-02-24T13:22:41.268Z,11.30
2019-02-24T13:25:14.636Z,11.30
2019-02-24T13:27:43.853Z,11.30
2019-02-24T13:30:14.923Z,11.40
2019-02-24T13:32:44.160Z,11.50
2019-02-24T13:35:13.381Z,11.50
2019-02-24T13:37:42.575Z,11.60
2019-02-24T13:40:13.597Z,11.60
2019-02-24T13:42:43.080Z,11.70
2019-02-24T13:45:17.101Z,11.80
2019-02-24T13:47:46.296Z,11.90
2019-02-24T13:50:16.117Z,12.00
2019-02-24T13:52:45.302Z,12.00
2019-02-24T13:55:15.232Z,12.00
2019-02-24T13:57:45.460Z,12.00
2019-02-24T14:00:23.545Z,12.00
2019-02-24T14:02:52.724Z,12.10
2019-02-24T14:05:22.000Z,12.00
2019-02-24T14:07:51.164Z,12.00
2019-02-24T14:10:20.443Z,12.00
2019-02-24T14:12:49.615Z,12.00
2019-02-24T14:15:18.792Z,12.10
2019-02-24T14:17:47.977Z,12.00
2019-02-24T14:20:18.415Z,12.00
2019-02-24T14:22:47.619Z,12.10
2019-02-24T14:25:17.329Z,12.10
2019-02-24T14:27:46.497Z,12.10
2019-02-24T14:30:16.645Z,12.20
2019-02-24T14:32:45.841Z,12.20
2019-02-24T14:35:23.236Z,12.20
2019-02-24T14:37:52.421Z,12.20
2019-02-24T14:40:21.666Z,12.30
2019-02-24T14:42:51.106Z,12.30
2019-02-24T14:45:21.757Z,12.30
2019-02-24T14:47:50.960Z,12.30
2019-02-24T14:50:20.428Z,12.40
2019-02-24T14:52:49.608Z,12.40
2019-02-24T14:55:19.056Z,12.40
2019-02-24T14:57:48.302Z,12.30
2019-02-24T15:00:19.080Z,12.30
2019-02-24T15:02:48.468Z,12.30
2019-02-24T15:05:19.144Z,12.30
2019-02-24T15:07:48.412Z,12.30
2019-02-24T15:10:19.898Z,12.30
2019-02-24T15:12:49.161Z,12.30
2019-02-24T15:15:20.990Z,12.30
2019-02-24T15:17:50.457Z,12.20
2019-02-24T15:20:20.701Z,12.20
2019-02-24T15:22:50.478Z,12.20
2019-02-24T15:25:19.723Z,12.10
2019-02-24T15:27:49.048Z,12.10
2019-02-24T15:30:27.046Z,12.10
2019-02-24T15:32:56.281Z,12.10
2019-02-24T15:35:25.445Z,12.00
2019-02-24T15:37:54.639Z,12.00
2019-02-24T15:40:23.854Z,12.00
2019-02-24T15:42:53.115Z,11.90
2019-02-24T15:45:22.696Z,11.90
2019-02-24T15:47:52.989Z,11.90
2019-02-24T15:50:23.232Z,11.90
2019-02-24T15:52:52.438Z,11.80
2019-02-24T15:55:22.095Z,11.80
2019-02-24T15:57:52.821Z,11.80
2019-02-24T16:00:25.340Z,11.80
2019-02-24T16:03:01.133Z,11.70
2019-02-24T16:05:25.643Z,11.80
2019-02-24T16:07:54.966Z,11.70
2019-02-24T16:10:24.144Z,11.70
2019-02-24T16:13:01.819Z,11.70
2019-02-24T16:15:31.077Z,11.70
2019-02-24T16:18:00.377Z,11.70
2019-02-24T16:20:35.228Z,11.70
2019-02-24T16:23:04.485Z,11.70
2019-02-24T16:25:35.165Z,11.60
2019-02-24T16:28:04.980Z,11.60
2019-02-24T16:30:35.542Z,11.60
2019-02-24T16:33:10.692Z,11.60
2019-02-24T16:35:35.685Z,11.60
2019-02-24T16:38:04.897Z,11.50
2019-02-24T16:40:40.602Z,11.50
2019-02-24T16:43:10.009Z,11.50
2019-02-24T16:45:39.493Z,11.50
2019-02-24T16:48:08.700Z,11.40
2019-02-24T16:50:38.252Z,11.40
2019-02-24T16:53:07.552Z,11.30
2019-02-24T16:55:36.689Z,11.30
2019-02-24T16:58:06.044Z,11.20
2019-02-24T17:00:35.267Z,11.10
2019-02-24T17:03:04.599Z,11.00
2019-02-24T17:05:35.312Z,11.00
2019-02-24T17:08:05.033Z,10.90
2019-02-24T17:10:34.494Z,10.90
2019-02-24T17:13:03.672Z,10.80
2019-02-24T17:15:32.875Z,10.80
2019-02-24T17:18:02.192Z,10.70
2019-02-24T17:20:31.379Z,10.70
2019-02-24T17:23:00.648Z,10.70
2019-02-24T17:25:29.830Z,10.70
2019-02-24T17:27:59.049Z,10.60
2019-02-24T17:30:28.477Z,10.50
2019-02-24T17:32:59.326Z,10.40
2019-02-24T17:35:28.849Z,10.40
2019-02-24T17:37:58.029Z,10.30
2019-02-24T17:40:27.417Z,10.30
2019-02-24T17:42:58.252Z,10.20
2019-02-24T17:45:28.998Z,10.20
2019-02-24T17:47:58.300Z,10.10
2019-02-24T17:50:27.493Z,10.00
2019-02-24T17:52:56.724Z,10.00
2019-02-24T17:55:26.661Z,9.90
2019-02-24T17:57:55.863Z,9.80
2019-02-24T18:00:36.606Z,9.70
2019-02-24T18:03:05.875Z,9.70
2019-02-24T18:05:35.086Z,9.70
2019-02-24T18:08:04.352Z,9.60
2019-02-24T18:10:33.523Z,9.50
2019-02-24T18:13:02.720Z,9.40
2019-02-24T18:15:31.973Z,9.30
2019-02-24T18:18:01.258Z,9.20
2019-02-24T18:20:30.423Z,9.10
2019-02-24T18:22:59.698Z,9.00
2019-02-24T18:25:31.531Z,8.90
2019-02-24T18:28:04.347Z,8.80
2019-02-24T18:30:33.669Z,8.70
2019-02-24T18:33:03.135Z,8.70
2019-02-24T18:35:32.452Z,8.60
2019-02-24T18:38:02.177Z,8.50
2019-02-24T18:40:31.481Z,8.40
2019-02-24T18:43:00.904Z,8.30
2019-02-24T18:45:30.603Z,8.30
2019-02-24T18:47:59.834Z,8.20
2019-02-24T18:50:29.026Z,8.10
2019-02-24T18:52:58.223Z,8.10
2019-02-24T18:55:27.389Z,8.00
2019-02-24T18:57:56.584Z,8.00
2019-02-24T19:00:25.783Z,8.00
2019-02-24T19:02:55.229Z,8.00
2019-02-24T19:05:24.636Z,8.00
2019-02-24T19:07:54.224Z,8.00
2019-02-24T19:10:24.006Z,7.90
2019-02-24T19:12:53.348Z,7.90
2019-02-24T19:15:23.961Z,7.80
2019-02-24T19:17:53.214Z,7.80
2019-02-24T19:20:23.433Z,7.70
2019-02-24T19:22:52.705Z,7.70
2019-02-24T19:25:21.896Z,7.70
2019-02-24T19:27:51.091Z,7.70
2019-02-24T19:30:20.840Z,7.70
2019-02-24T19:32:50.137Z,7.70
2019-02-24T19:35:19.948Z,7.70
2019-02-24T19:37:49.144Z,7.60
2019-02-24T19:40:21.909Z,7.60
2019-02-24T19:42:51.410Z,7.50
2019-02-24T19:45:23.987Z,7.50
2019-02-24T19:47:53.176Z,7.50
2019-02-24T19:50:22.784Z,7.50
2019-02-24T19:52:51.952Z,7.40
2019-02-24T19:55:21.154Z,7.40
2019-02-24T19:57:50.481Z,7.30
2019-02-24T20:00:21.529Z,7.30
2019-02-24T20:02:50.715Z,7.20
2019-02-24T20:05:20.850Z,7.10
2019-02-24T20:07:50.589Z,7.00
2019-02-24T20:10:22.833Z,6.90
2019-02-24T20:12:52.028Z,6.80
2019-02-24T20:15:21.232Z,6.80
2019-02-24T20:17:50.619Z,6.80
2019-02-24T20:20:19.944Z,6.70
2019-02-24T20:22:49.124Z,6.70
2019-02-24T20:25:22.078Z,6.70
2019-02-24T20:27:51.336Z,6.60
2019-02-24T20:30:31.772Z,6.60
2019-02-24T20:33:00.953Z,6.50
2019-02-24T20:35:30.220Z,6.50
2019-02-24T20:37:59.462Z,6.40
2019-02-24T20:40:29.001Z,6.30
2019-02-24T20:42:58.315Z,6.30
2019-02-24T20:45:29.193Z,6.10
2019-02-24T20:47:58.415Z,6.00
2019-02-24T20:50:30.469Z,5.80
2019-02-24T20:52:59.765Z,5.60
2019-02-24T20:55:29.013Z,5.60
2019-02-24T20:57:58.342Z,5.50
2019-02-24T21:00:36.749Z,5.50
2019-02-24T21:03:05.939Z,5.60
2019-02-24T21:05:35.160Z,5.60
2019-02-24T21:08:05.452Z,5.60
2019-02-24T21:10:34.719Z,5.50
2019-02-24T21:13:04.318Z,5.50
2019-02-24T21:15:33.592Z,5.50
2019-02-24T21:18:02.837Z,5.60
2019-02-24T21:20:33.822Z,5.60
2019-02-24T21:23:03.409Z,5.60
2019-02-24T21:25:32.954Z,5.70
2019-02-24T21:28:02.161Z,5.70
2019-02-24T21:30:31.915Z,5.70
2019-02-24T21:33:03.087Z,5.60
2019-02-24T21:35:32.558Z,5.60
2019-02-24T21:38:02.285Z,5.50
2019-02-24T21:40:33.236Z,5.50
2019-02-24T21:43:02.644Z,5.50
2019-02-24T21:45:31.942Z,5.60
2019-02-24T21:48:02.440Z,5.60
2019-02-24T21:50:31.803Z,5.60
2019-02-24T21:53:02.101Z,5.60
2019-02-24T21:55:31.290Z,5.60
2019-02-24T21:58:00.478Z,5.60
2019-02-24T22:00:30.725Z,5.60
2019-02-24T22:03:00.221Z,5.60
2019-02-24T22:05:29.408Z,5.60
2019-02-24T22:07:58.755Z,5.60
2019-02-24T22:10:28.011Z,5.60
2019-02-24T22:12:59.322Z,5.60
2019-02-24T22:15:29.220Z,5.50
2019-02-24T22:17:58.427Z,5.50
2019-02-24T22:20:27.805Z,5.60
2019-02-24T22:22:57.047Z,5.60
2019-02-24T22:25:27.609Z,5.60
2019-02-24T22:27:56.944Z,5.60
2019-02-24T22:33:20.370Z,5.60
2019-02-24T22:35:59.744Z,5.50
2019-02-24T22:38:34.835Z,5.60
2019-02-24T22:41:12.634Z,5.60
2019-02-24T22:43:43.485Z,5.60
2019-02-24T22:46:12.664Z,5.60
2019-02-24T22:48:41.860Z,5.60
2019-02-24T22:51:12.000Z,5.60
2019-02-24T22:53:41.307Z,5.50
2019-02-24T22:56:10.481Z,5.50
2019-02-24T22:58:39.676Z,5.40
2019-02-24T23:01:10.397Z,5.40
2019-02-24T23:03:41.201Z,5.30
2019-02-24T23:06:12.039Z,5.30
2019-02-24T23:08:41.246Z,5.30
2019-02-24T23:11:10.505Z,5.20
2019-02-24T23:13:39.705Z,5.20
2019-02-24T23:16:08.946Z,5.20
2019-02-24T23:18:38.772Z,5.20
2019-02-24T23:21:09.329Z,5.20
2019-02-24T23:23:38.492Z,5.30
2019-02-24T23:26:07.678Z,5.30
2019-02-24T23:28:36.855Z,5.20
2019-02-24T23:31:06.167Z,5.20
2019-02-24T23:33:35.368Z,5.20
2019-02-24T23:36:04.653Z,5.00
2019-02-24T23:38:34.013Z,4.90
2019-02-24T23:41:03.295Z,4.90
2019-02-24T23:43:33.592Z,4.90
2019-02-24T23:46:03.229Z,4.90
2019-02-24T23:48:32.698Z,4.80
2019-02-24T23:51:02.575Z,4.80
2019-02-24T23:53:32.845Z,4.80
2019-02-24T23:56:02.084Z,4.80
2019-02-24T23:58:31.277Z,4.80
